Time;durP1;ratioP1;P1;durP2;ratioP2;P2;SDS_P1;SDS_P2;PMS_P1;PMS_P2;Temp;Humidity;BMP_temperature;BMP_pressure;BME280_temperature;BME280_humidity;BME280_pressure;Samples;Min_cycle;Max_cycle;Signal;HPM_P1;HPM_P2
2021/07/08 00:01:42;;;;;;;11.40;4.10;;;18.10;99.90;;;;;;5119921;28;20512;-38
2021/07/08 00:04:09;;;;;;;2.90;2.33;;;18.10;99.90;;;;;;5119619;28;20426;-37
2021/07/08 00:06:34;;;;;;;2.83;2.27;;;18.10;99.90;;;;;;5118904;28;20813;-39
2021/07/08 00:09:00;;;;;;;2.80;2.27;;;18.10;99.90;;;;;;5101059;28;20597;-36
2021/07/08 00:11:27;;;;;;;4.50;2.87;;;18.10;99.90;;;;;;5119857;27;20465;-36
2021/07/08 00:13:53;;;;;;;3.83;2.60;;;18.10;99.90;;;;;;5101169;28;20176;-36
2021/07/08 00:16:19;;;;;;;4.13;2.53;;;18.00;99.90;;;;;;5119733;28;20410;-37
2021/07/08 00:18:45;;;;;;;2.80;2.40;;;18.00;99.90;;;;;;5101368;28;20784;-35
2021/07/08 00:21:10;;;;;;;2.90;2.57;;;17.90;99.90;;;;;;5119749;28;20191;-37
2021/07/08 00:23:36;;;;;;;4.50;2.67;;;17.90;99.90;;;;;;5119329;28;20792;-36
2021/07/08 00:26:02;;;;;;;2.77;2.20;;;17.90;99.90;;;;;;5119100;28;20183;-38
2021/07/08 00:28:28;;;;;;;2.30;2.07;;;17.90;99.90;;;;;;5101230;28;20689;-36
2021/07/08 00:30:53;;;;;;;3.50;3.00;;;18.00;99.90;;;;;;5118935;28;20812;-36
2021/07/08 00:33:19;;;;;;;3.40;2.10;;;18.00;99.90;;;;;;5118706;28;20302;-34
2021/07/08 00:35:46;;;;;;;3.53;2.77;;;18.00;99.90;;;;;;5118337;28;20183;-37
2021/07/08 00:38:12;;;;;;;2.60;2.10;;;17.90;99.90;;;;;;5118573;28;20578;-36
2021/07/08 00:40:38;;;;;;;2.30;2.10;;;17.80;99.90;;;;;;5118426;28;20474;-36
2021/07/08 00:43:04;;;;;;;2.67;2.40;;;17.80;99.90;;;;;;5118550;28;20425;-39
2021/07/08 00:45:29;;;;;;;4.60;2.77;;;17.80;99.90;;;;;;5118511;28;20187;-36
2021/07/08 00:47:56;;;;;;;3.93;2.33;;;17.70;99.90;;;;;;5118291;28;20465;-36
2021/07/08 00:50:25;;;;;;;3.27;2.07;;;17.70;99.90;;;;;;5118186;28;20167;-38
2021/07/08 00:52:52;;;;;;;3.63;2.30;;;17.70;99.90;;;;;;5118124;28;20417;-36
2021/07/08 00:55:17;;;;;;;2.80;2.20;;;17.70;99.90;;;;;;5118109;28;20757;-35
2021/07/08 00:57:53;;;;;;;4.73;2.60;;;17.70;99.90;;;;;;5118061;28;20498;-36
2021/07/08 01:00:31;;;;;;;3.20;2.80;;;17.70;99.90;;;;;;5118383;28;20179;-37
2021/07/08 01:02:57;;;;;;;3.27;2.30;;;17.70;99.90;;;;;;5118103;28;20417;-36
2021/07/08 01:05:28;;;;;;;2.87;2.10;;;17.70;99.90;;;;;;5118283;28;20456;-36
2021/07/08 01:07:56;;;;;;;4.13;2.20;;;17.70;99.90;;;;;;5119069;27;20468;-36
2021/07/08 01:10:34;;;;;;;2.53;2.30;;;17.70;99.90;;;;;;5099981;28;20425;-36
2021/07/08 01:13:00;;;;;;;4.53;2.40;;;17.70;99.90;;;;;;5118115;28;20732;-36
2021/07/08 01:15:26;;;;;;;2.40;2.20;;;17.70;99.90;;;;;;5117601;28;20447;-37
2021/07/08 01:17:52;;;;;;;2.90;2.70;;;17.70;99.90;;;;;;5117896;28;20190;-37
2021/07/08 01:20:20;;;;;;;5.07;2.73;;;17.70;99.90;;;;;;5118079;28;20823;-37
2021/07/08 01:22:48;;;;;;;2.50;2.30;;;17.80;99.90;;;;;;5117527;28;20212;-37
2021/07/08 01:25:15;;;;;;;3.60;3.30;;;17.80;99.90;;;;;;5099621;28;20431;-36
2021/07/08 01:27:41;;;;;;;6.00;2.30;;;17.90;99.90;;;;;;5099347;28;20474;-37
2021/07/08 01:30:09;;;;;;;3.23;2.93;;;17.90;99.90;;;;;;5112161;27;20412;-37
2021/07/08 01:32:35;;;;;;;3.37;2.93;;;17.90;99.90;;;;;;5120216;27;20179;-36
2021/07/08 01:35:02;;;;;;;3.30;3.00;;;17.90;99.90;;;;;;5137011;27;20500;-37
2021/07/08 01:37:28;;;;;;;3.00;2.63;;;17.80;99.90;;;;;;5136776;27;20568;-37
2021/07/08 01:39:54;;;;;;;4.40;3.20;;;17.70;99.90;;;;;;5136614;27;20584;-36
2021/07/08 01:42:19;;;;;;;2.97;2.67;;;17.70;99.90;;;;;;5136579;27;20277;-36
2021/07/08 01:44:45;;;;;;;5.73;3.37;;;17.70;99.90;;;;;;5134333;27;20585;-36
2021/07/08 01:47:11;;;;;;;3.47;3.17;;;17.60;99.90;;;;;;5137324;27;20195;-39
2021/07/08 01:49:36;;;;;;;2.90;2.60;;;17.60;99.90;;;;;;5136547;27;20240;-36
2021/07/08 01:52:03;;;;;;;3.40;2.93;;;17.40;99.90;;;;;;5119202;27;20210;-36
2021/07/08 01:54:29;;;;;;;3.37;3.07;;;17.40;99.90;;;;;;5118500;27;20239;-36
2021/07/08 01:56:54;;;;;;;2.30;2.10;;;17.40;99.90;;;;;;5137610;27;20826;-36
2021/07/08 01:59:20;;;;;;;4.43;2.40;;;17.40;99.90;;;;;;5137131;27;20171;-36
2021/07/08 02:01:45;;;;;;;2.50;2.10;;;17.40;99.90;;;;;;5137348;27;20183;-36
2021/07/08 02:04:11;;;;;;;5.57;2.53;;;17.40;99.90;;;;;;5134450;27;20641;-36
2021/07/08 02:06:37;;;;;;;3.03;2.17;;;17.50;99.90;;;;;;5137601;27;20239;-35
2021/07/08 02:09:05;;;;;;;3.40;2.53;;;17.40;99.90;;;;;;5136854;27;20538;-37
2021/07/08 02:11:31;;;;;;;3.53;2.40;;;17.50;99.90;;;;;;5118685;27;20163;-37
2021/07/08 02:13:57;;;;;;;2.73;2.30;;;17.40;99.90;;;;;;5119546;28;20435;-37
2021/07/08 02:16:22;;;;;;;3.67;2.40;;;17.40;99.90;;;;;;5137835;28;20401;-36
2021/07/08 02:18:50;;;;;;;2.00;1.80;;;17.50;99.90;;;;;;5119215;28;20190;-36
2021/07/08 02:21:16;;;;;;;2.53;2.23;;;17.50;99.90;;;;;;5137907;28;20182;-36
2021/07/08 02:23:42;;;;;;;2.57;2.37;;;17.50;99.90;;;;;;5137280;28;20409;-37
2021/07/08 02:26:08;;;;;;;2.40;2.13;;;17.50;99.90;;;;;;5137055;28;20175;-36
2021/07/08 02:28:34;;;;;;;2.53;2.33;;;17.50;99.90;;;;;;5137192;28;20460;-36
2021/07/08 02:31:00;;;;;;;2.70;2.47;;;17.50;99.90;;;;;;5137432;28;20404;-36
2021/07/08 02:33:26;;;;;;;7.47;4.00;;;17.40;99.90;;;;;;5136878;28;20419;-40
2021/07/08 02:35:52;;;;;;;5.10;2.80;;;17.40;99.90;;;;;;5137165;28;20171;-36
2021/07/08 02:38:18;;;;;;;2.40;1.77;;;17.30;99.90;;;;;;5137122;28;20492;-37
2021/07/08 02:40:43;;;;;;;4.93;2.30;;;17.30;99.90;;;;;;5137385;28;20488;-36
2021/07/08 02:43:09;;;;;;;2.30;1.90;;;17.40;99.90;;;;;;5137177;28;20179;-37
2021/07/08 02:45:38;;;;;;;4.00;2.70;;;17.40;99.90;;;;;;5137651;28;20199;-36
2021/07/08 02:48:06;;;;;;;6.07;3.10;;;17.40;99.90;;;;;;5120077;27;20750;-36
2021/07/08 02:50:33;;;;;;;2.53;2.30;;;17.50;99.90;;;;;;5141144;27;20445;-35
2021/07/08 02:52:59;;;;;;;4.70;2.90;;;17.40;99.90;;;;;;5122852;27;20435;-36
2021/07/08 02:55:26;;;;;;;4.77;2.70;;;17.30;99.90;;;;;;5141027;27;20468;-36
2021/07/08 02:57:52;;;;;;;5.40;2.90;;;17.20;99.90;;;;;;5141365;27;20428;-37
2021/07/08 03:00:21;;;;;;;2.87;2.67;;;17.20;99.90;;;;;;5141007;27;20523;-37
2021/07/08 03:02:46;;;;;;;4.10;2.27;;;17.20;99.90;;;;;;5140747;27;20503;-36
2021/07/08 03:05:13;;;;;;;2.40;2.20;;;17.20;99.90;;;;;;5140785;27;20526;-36
2021/07/08 03:07:39;;;;;;;2.40;2.20;;;17.20;99.90;;;;;;5141007;27;20538;-36
2021/07/08 03:10:07;;;;;;;2.60;2.40;;;17.20;99.90;;;;;;5140639;27;20419;-37
2021/07/08 03:12:33;;;;;;;3.87;2.30;;;17.30;99.90;;;;;;5140824;27;20755;-38
2021/07/08 03:14:59;;;;;;;12.93;3.13;;;17.30;99.90;;;;;;5140799;27;20475;-37
2021/07/08 03:17:24;;;;;;;3.87;2.17;;;17.30;99.90;;;;;;5140615;27;20256;-37
2021/07/08 03:19:50;;;;;;;3.50;2.60;;;17.40;99.90;;;;;;5140405;27;20507;-36
2021/07/08 03:22:16;;;;;;;4.83;2.80;;;17.40;99.90;;;;;;5140419;27;20180;-36
2021/07/08 03:24:41;;;;;;;2.73;2.17;;;17.40;99.90;;;;;;5140129;27;20191;-36
2021/07/08 03:27:07;;;;;;;3.37;2.63;;;17.40;99.90;;;;;;5140512;27;20186;-37
2021/07/08 03:29:33;;;;;;;2.90;2.30;;;17.40;99.90;;;;;;5139635;27;20163;-37
2021/07/08 03:31:58;;;;;;;3.00;2.70;;;17.30;99.90;;;;;;5140498;27;20178;-36
2021/07/08 03:34:24;;;;;;;3.37;3.07;;;17.30;99.90;;;;;;5139344;27;20337;-36
2021/07/08 03:36:50;;;;;;;3.07;2.17;;;17.30;99.90;;;;;;5140214;27;20338;-37
2021/07/08 03:39:15;;;;;;;3.00;2.70;;;17.20;99.90;;;;;;5140502;27;20175;-38
2021/07/08 03:41:41;;;;;;;2.53;2.33;;;17.20;99.90;;;;;;5139568;27;20187;-37
2021/07/08 03:44:06;;;;;;;5.13;3.57;;;17.20;99.90;;;;;;5138863;27;20175;-37
2021/07/08 03:46:32;;;;;;;2.93;2.50;;;17.30;99.90;;;;;;5140239;27;20187;-37
2021/07/08 03:48:58;;;;;;;2.73;2.37;;;17.30;99.90;;;;;;5139983;27;20611;-37
2021/07/08 03:51:23;;;;;;;2.67;2.47;;;17.30;99.90;;;;;;5138237;27;20265;-37
2021/07/08 03:53:49;;;;;;;2.77;2.20;;;17.30;99.90;;;;;;5120269;27;20182;-38
2021/07/08 03:56:15;;;;;;;2.60;2.40;;;17.30;99.90;;;;;;5138204;27;20218;-36
2021/07/08 03:58:41;;;;;;;3.00;2.63;;;17.30;99.90;;;;;;5137665;27;20194;-37
2021/07/08 04:01:07;;;;;;;4.03;3.33;;;17.40;99.90;;;;;;5119167;27;20343;-37
2021/07/08 04:03:33;;;;;;;4.27;2.43;;;17.40;99.90;;;;;;5136863;27;20534;-37
2021/07/08 04:05:58;;;;;;;2.80;2.60;;;17.40;99.90;;;;;;5137539;27;20278;-36
2021/07/08 04:08:24;;;;;;;4.97;2.33;;;17.50;99.90;;;;;;5137613;27;20213;-37
2021/07/08 04:10:50;;;;;;;3.47;3.23;;;17.50;99.90;;;;;;5137735;27;20578;-38
2021/07/08 04:13:18;;;;;;;3.37;2.43;;;17.60;99.90;;;;;;5137638;27;20172;-36
2021/07/08 04:15:45;;;;;;;2.90;2.47;;;17.60;99.90;;;;;;5138807;27;20549;-37
2021/07/08 04:18:12;;;;;;;2.93;2.63;;;17.70;99.90;;;;;;5138403;27;20431;-37
2021/07/08 04:20:39;;;;;;;3.37;2.27;;;17.70;99.90;;;;;;5121217;27;20408;-36
2021/07/08 04:23:06;;;;;;;3.33;2.60;;;17.70;99.90;;;;;;5139034;27;20416;-36
2021/07/08 04:25:33;;;;;;;5.60;2.70;;;17.60;99.90;;;;;;5139150;27;20497;-36
2021/07/08 04:27:59;;;;;;;2.63;2.43;;;17.60;99.90;;;;;;5139827;27;20472;-37
2021/07/08 04:30:26;;;;;;;3.27;2.97;;;17.60;99.90;;;;;;5138939;27;20481;-36
2021/07/08 04:32:52;;;;;;;3.70;2.53;;;17.70;99.90;;;;;;5138357;27;20472;-37
2021/07/08 04:35:20;;;;;;;5.43;2.47;;;17.80;99.90;;;;;;5137802;27;20420;-36
2021/07/08 04:37:46;;;;;;;2.83;2.53;;;17.90;99.90;;;;;;5136819;27;20897;-38
2021/07/08 04:40:15;;;;;;;3.20;2.53;;;17.90;99.90;;;;;;5117496;27;20706;-36
2021/07/08 04:42:40;;;;;;;5.20;2.40;;;17.90;99.90;;;;;;5136092;27;20563;-37
2021/07/08 04:45:09;;;;;;;3.50;3.20;;;17.90;99.90;;;;;;5136627;27;20449;-36
2021/07/08 04:47:38;;;;;;;5.10;3.33;;;17.90;99.90;;;;;;5119333;27;20261;-37
2021/07/08 04:50:05;;;;;;;4.10;3.70;;;17.70;99.90;;;;;;5118934;27;20427;-35
2021/07/08 04:52:31;;;;;;;4.50;4.10;;;17.60;99.90;;;;;;5136867;27;20525;-36
2021/07/08 04:54:56;;;;;;;3.57;3.27;;;17.60;99.90;;;;;;5137328;27;20513;-36
2021/07/08 04:57:23;;;;;;;4.40;3.50;;;17.50;99.90;;;;;;5137555;27;20440;-36
2021/07/08 04:59:48;;;;;;;7.20;4.07;;;17.50;99.90;;;;;;5134730;27;20477;-36
2021/07/08 05:02:15;;;;;;;7.23;4.17;;;17.50;99.90;;;;;;5117659;27;20457;-36
2021/07/08 05:04:41;;;;;;;6.73;4.40;;;17.50;99.90;;;;;;5137205;27;20484;-36
2021/07/08 05:07:07;;;;;;;5.13;4.50;;;17.40;99.90;;;;;;5118772;27;20425;-36
2021/07/08 05:09:32;;;;;;;5.90;4.07;;;17.40;99.90;;;;;;5137551;27;20413;-37
2021/07/08 05:11:58;;;;;;;4.20;3.73;;;17.30;99.90;;;;;;5133723;27;20171;-37
2021/07/08 05:14:23;;;;;;;4.53;4.13;;;17.30;99.90;;;;;;5136783;27;20171;-37
2021/07/08 05:16:49;;;;;;;4.57;4.17;;;17.30;99.90;;;;;;5123536;27;20472;-36
2021/07/08 05:19:15;;;;;;;4.87;4.40;;;17.30;99.90;;;;;;5114184;28;20657;-36
2021/07/08 05:21:47;;;;;;;5.10;4.60;;;17.20;99.90;;;;;;5115272;28;20180;-35
2021/07/08 05:24:13;;;;;;;4.43;4.03;;;17.30;99.90;;;;;;5097213;28;20280;-36
2021/07/08 05:26:38;;;;;;;4.40;3.63;;;17.30;99.90;;;;;;5098400;28;20425;-37
2021/07/08 05:29:06;;;;;;;4.67;4.27;;;17.40;99.90;;;;;;5098466;28;20473;-37
2021/07/08 05:31:31;;;;;;;5.00;4.10;;;17.50;99.90;;;;;;5118857;27;20181;-36
2021/07/08 05:33:57;;;;;;;6.00;4.47;;;17.60;99.90;;;;;;5116452;28;20442;-37
2021/07/08 05:36:22;;;;;;;4.40;4.00;;;17.60;99.90;;;;;;5116698;28;20214;-36
2021/07/08 05:38:48;;;;;;;7.90;4.53;;;17.70;99.90;;;;;;5114095;28;20212;-36
2021/07/08 05:41:14;;;;;;;7.30;5.20;;;17.70;99.90;;;;;;5096744;28;20178;-36
2021/07/08 05:43:39;;;;;;;4.77;4.37;;;17.70;99.90;;;;;;5114062;28;20230;-35
2021/07/08 05:46:05;;;;;;;5.23;4.73;;;17.70;99.90;;;;;;5115051;28;20187;-37
2021/07/08 05:48:32;;;;;;;5.03;4.40;;;17.70;99.90;;;;;;5096459;28;20302;-37
2021/07/08 05:50:58;;;;;;;5.43;3.90;;;17.70;99.90;;;;;;5097415;28;20252;-37
2021/07/08 05:53:23;;;;;;;6.00;3.93;;;17.60;99.90;;;;;;5114811;28;20803;-36
2021/07/08 05:55:49;;;;;;;4.77;4.37;;;17.60;99.90;;;;;;5113618;28;20235;-37
2021/07/08 05:58:14;;;;;;;3.97;3.10;;;17.60;99.90;;;;;;5113883;28;20312;-37
2021/07/08 06:00:40;;;;;;;4.67;3.70;;;17.70;99.90;;;;;;5111613;28;20252;-36
2021/07/08 06:03:06;;;;;;;4.53;4.13;;;17.80;99.90;;;;;;5112366;28;20207;-35
2021/07/08 06:05:31;;;;;;;6.73;4.70;;;17.80;99.90;;;;;;5112802;28;20423;-37
2021/07/08 06:07:57;;;;;;;5.13;4.57;;;17.80;99.90;;;;;;5095158;28;20229;-36
2021/07/08 06:10:22;;;;;;;4.83;4.20;;;17.80;99.90;;;;;;5113811;28;20168;-36
2021/07/08 06:12:48;;;;;;;3.97;3.57;;;17.80;99.90;;;;;;5113008;28;20171;-36
2021/07/08 06:15:14;;;;;;;4.17;3.20;;;17.80;99.90;;;;;;5114810;28;20506;-37
2021/07/08 06:17:39;;;;;;;3.77;3.00;;;17.80;99.90;;;;;;5115592;28;20252;-38
2021/07/08 06:20:06;;;;;;;3.37;3.07;;;17.90;99.90;;;;;;5114126;28;20194;-37
2021/07/08 06:22:32;;;;;;;3.17;2.87;;;18.00;99.90;;;;;;5115794;28;20576;-36
2021/07/08 06:24:58;;;;;;;3.73;3.33;;;18.10;99.90;;;;;;5117661;28;20738;-37
2021/07/08 06:27:23;;;;;;;4.30;3.23;;;18.20;99.90;;;;;;5116987;28;20485;-37
2021/07/08 06:29:49;;;;;;;3.33;3.03;;;18.30;99.90;;;;;;5117643;28;20246;-37
2021/07/08 06:32:17;;;;;;;3.67;3.37;;;18.30;99.90;;;;;;5117034;28;20179;-36
2021/07/08 06:34:43;;;;;;;3.10;2.90;;;18.40;99.90;;;;;;5118788;28;20239;-36
2021/07/08 06:37:09;;;;;;;3.43;3.10;;;18.30;99.90;;;;;;5118750;28;20490;-36
2021/07/08 06:39:34;;;;;;;2.93;2.50;;;18.20;99.90;;;;;;5119834;28;20194;-37
2021/07/08 06:42:00;;;;;;;3.77;3.47;;;18.20;99.90;;;;;;5120897;28;20195;-37
2021/07/08 06:44:26;;;;;;;3.57;3.27;;;18.20;99.90;;;;;;5102670;28;20204;-36
2021/07/08 06:46:53;;;;;;;3.77;3.37;;;18.20;99.90;;;;;;5120462;28;20176;-36
2021/07/08 06:49:19;;;;;;;3.90;3.20;;;18.30;99.90;;;;;;5101312;28;20229;-37
2021/07/08 06:51:44;;;;;;;3.80;3.33;;;18.30;99.90;;;;;;5119603;28;20421;-37
2021/07/08 06:54:10;;;;;;;3.50;3.07;;;18.40;99.90;;;;;;5119156;28;20417;-36
2021/07/08 06:56:36;;;;;;;2.80;2.60;;;18.50;99.90;;;;;;5119303;28;20258;-37
2021/07/08 06:59:01;;;;;;;3.60;3.30;;;18.60;99.90;;;;;;5101000;28;20183;-36
2021/07/08 07:01:27;;;;;;;5.30;3.23;;;18.80;99.90;;;;;;5119500;28;20199;-37
2021/07/08 07:03:53;;;;;;;5.10;3.50;;;19.00;99.90;;;;;;5119072;28;20172;-36
2021/07/08 07:06:18;;;;;;;3.80;3.40;;;19.20;99.90;;;;;;5101649;28;20184;-37
2021/07/08 07:08:44;;;;;;;6.00;3.50;;;19.30;99.90;;;;;;5100986;28;20215;-37
2021/07/08 07:11:10;;;;;;;3.70;2.63;;;19.60;99.90;;;;;;5118168;28;20176;-37
2021/07/08 07:13:36;;;;;;;2.73;2.07;;;19.70;99.90;;;;;;5120203;28;20241;-37
2021/07/08 07:16:01;;;;;;;5.83;3.30;;;19.80;99.90;;;;;;5119511;28;20421;-36
2021/07/08 07:18:28;;;;;;;5.33;2.77;;;19.80;99.90;;;;;;5119335;28;20179;-36
2021/07/08 07:20:54;;;;;;;3.37;2.33;;;19.90;99.90;;;;;;5100950;28;20274;-37
2021/07/08 07:23:19;;;;;;;2.83;2.63;;;20.00;99.90;;;;;;5118217;28;20406;-37
2021/07/08 07:25:45;;;;;;;2.23;1.90;;;20.30;99.90;;;;;;5118450;28;20199;-37
2021/07/08 07:28:11;;;;;;;5.73;2.60;;;20.50;99.90;;;;;;5118396;28;20207;-38
2021/07/08 07:30:38;;;;;;;3.30;2.70;;;20.70;99.90;;;;;;5101234;28;20414;-37
2021/07/08 07:33:04;;;;;;;4.40;2.57;;;20.70;99.90;;;;;;5118162;28;20413;-37
2021/07/08 07:35:36;;;;;;;4.90;2.80;;;20.70;99.90;;;;;;5116736;28;20436;-37
2021/07/08 07:38:07;;;;;;;3.30;2.10;;;20.80;99.90;;;;;;5099931;28;20452;-37
2021/07/08 07:40:33;;;;;;;4.60;2.53;;;20.90;99.90;;;;;;5118811;28;20168;-37
2021/07/08 07:42:58;;;;;;;6.60;3.00;;;20.80;99.90;;;;;;5117821;28;20458;-38
2021/07/08 07:45:24;;;;;;;5.60;2.73;;;20.80;99.90;;;;;;5116817;28;20178;-37
2021/07/08 07:47:52;;;;;;;3.40;2.77;;;20.70;99.90;;;;;;5117998;28;20207;-38
2021/07/08 07:50:18;;;;;;;4.43;2.83;;;20.40;99.90;;;;;;5119187;28;20172;-37
2021/07/08 07:52:44;;;;;;;3.13;2.50;;;20.30;99.90;;;;;;5119076;28;20835;-37
2021/07/08 07:55:10;;;;;;;3.33;2.70;;;20.10;99.90;;;;;;5118360;28;20766;-37
2021/07/08 07:57:35;;;;;;;3.13;1.90;;;20.10;99.90;;;;;;5118361;28;20180;-37
2021/07/08 08:00:01;;;;;;;5.37;2.60;;;20.20;99.90;;;;;;5118592;28;20176;-38
2021/07/08 08:02:27;;;;;;;2.70;2.50;;;20.30;99.90;;;;;;5119662;28;20624;-38
2021/07/08 08:05:33;;;;;;;2.70;2.50;;;20.50;99.90;;;;;;5100040;28;20453;-37
2021/07/08 08:10:28;;;;;;;4.07;2.10;;;21.10;99.90;;;;;;5117934;28;20408;-37
2021/07/08 08:12:54;;;;;;;2.70;2.33;;;21.50;99.90;;;;;;5117988;28;20425;-39
2021/07/08 08:15:20;;;;;;;2.97;2.67;;;22.00;99.90;;;;;;5118944;28;20175;-38
2021/07/08 08:17:47;;;;;;;2.60;2.40;;;22.30;98.60;;;;;;5100619;28;20429;-37
2021/07/08 08:20:14;;;;;;;3.00;2.30;;;22.40;98.00;;;;;;5116971;28;20176;-38
2021/07/08 08:22:41;;;;;;;3.30;2.50;;;22.60;97.90;;;;;;5116692;28;20434;-39
2021/07/08 08:25:09;;;;;;;2.97;2.10;;;22.80;97.90;;;;;;5116031;28;20424;-38
2021/07/08 08:27:36;;;;;;;2.80;2.27;;;23.00;97.30;;;;;;5116665;28;21081;-37
2021/07/08 08:30:03;;;;;;;2.23;1.77;;;22.80;96.00;;;;;;5099381;28;20498;-37
2021/07/08 08:32:28;;;;;;;1.70;1.60;;;22.90;96.20;;;;;;5116835;28;20429;-38
2021/07/08 08:34:54;;;;;;;2.10;1.90;;;23.20;96.20;;;;;;5117658;28;20511;-38
2021/07/08 08:37:21;;;;;;;1.40;1.30;;;23.60;95.40;;;;;;5116536;28;20566;-38
2021/07/08 08:39:46;;;;;;;2.27;1.73;;;23.90;94.50;;;;;;5116395;28;20546;-37
2021/07/08 08:42:12;;;;;;;1.67;1.43;;;24.00;94.20;;;;;;5115930;28;20433;-38
2021/07/08 08:44:38;;;;;;;2.10;1.90;;;24.30;94.10;;;;;;5097362;28;20179;-38
2021/07/08 08:47:07;;;;;;;1.93;1.60;;;24.50;93.20;;;;;;5115352;28;20436;-39
2021/07/08 08:49:40;;;;;;;2.60;1.70;;;24.70;92.80;;;;;;5115267;28;20175;-38
2021/07/08 08:52:07;;;;;;;2.43;2.00;;;24.80;91.60;;;;;;5114272;28;20417;-39
2021/07/08 08:54:33;;;;;;;2.77;1.90;;;24.80;91.30;;;;;;5115095;28;20438;-39
2021/07/08 08:56:59;;;;;;;3.33;2.00;;;24.50;91.80;;;;;;5115418;28;20929;-39
2021/07/08 08:59:24;;;;;;;2.27;2.00;;;23.70;92.60;;;;;;5097892;28;20410;-37
2021/07/08 09:02:29;;;;;;;3.60;1.90;;;23.00;94.10;;;;;;5115989;28;20201;-38
2021/07/08 09:04:55;;;;;;;2.20;2.00;;;22.80;94.80;;;;;;4995892;28;20178;-39
2021/07/08 09:07:30;;;;;;;2.27;2.07;;;22.80;94.90;;;;;;5011671;28;20433;-37
2021/07/08 09:09:58;;;;;;;2.37;1.93;;;22.40;96.20;;;;;;5067154;28;20415;-38
2021/07/08 09:12:25;;;;;;;2.70;2.30;;;22.20;96.40;;;;;;5116285;28;20508;-38
2021/07/08 09:14:52;;;;;;;2.30;2.10;;;22.20;96.70;;;;;;5115470;28;20438;-38
2021/07/08 09:17:20;;;;;;;2.27;2.07;;;22.20;97.10;;;;;;5114340;28;20477;-38
2021/07/08 09:20:06;;;;;;;2.20;2.00;;;22.30;96.70;;;;;;5114769;28;20418;-37
2021/07/08 09:22:33;;;;;;;2.23;2.07;;;22.30;96.50;;;;;;5094371;28;20691;-38
2021/07/08 09:24:58;;;;;;;2.20;2.00;;;22.20;97.00;;;;;;5114049;28;20421;-38
2021/07/08 09:27:27;;;;;;;4.70;2.77;;;22.20;96.90;;;;;;5111557;28;20901;-37
2021/07/08 09:29:55;;;;;;;3.60;2.67;;;22.20;97.00;;;;;;5110765;28;20370;-37
2021/07/08 09:32:23;;;;;;;2.53;2.30;;;22.10;97.00;;;;;;5112867;28;20466;-37
2021/07/08 09:34:53;;;;;;;3.17;2.77;;;22.00;97.10;;;;;;5114200;28;20422;-38
2021/07/08 09:37:24;;;;;;;2.70;2.50;;;21.90;97.20;;;;;;5113292;28;20428;-38
2021/07/08 09:39:52;;;;;;;3.30;2.90;;;21.80;97.70;;;;;;5113721;28;20521;-37
2021/07/08 09:42:36;;;;;;;2.97;2.60;;;21.70;97.70;;;;;;5114322;28;20437;-38
2021/07/08 09:45:13;;;;;;;2.60;2.40;;;21.70;98.00;;;;;;5115443;28;20401;-37
2021/07/08 09:47:42;;;;;;;2.90;2.70;;;21.60;97.90;;;;;;5096008;28;20505;-38
2021/07/08 09:50:09;;;;;;;3.60;3.30;;;21.50;97.90;;;;;;5113433;28;20627;-37
2021/07/08 09:52:35;;;;;;;3.03;2.83;;;21.30;98.90;;;;;;5097249;28;20524;-38
2021/07/08 09:55:18;;;;;;;2.73;2.53;;;21.00;99.70;;;;;;5116262;28;20500;-39
2021/07/08 09:57:45;;;;;;;3.23;2.60;;;21.20;99.90;;;;;;5097788;28;20192;-38
2021/07/08 10:00:23;;;;;;;3.43;2.53;;;21.40;99.90;;;;;;5116668;28;20405;-37
2021/07/08 10:02:51;;;;;;;2.70;2.50;;;21.60;99.50;;;;;;5116557;28;20448;-37
2021/07/08 10:05:18;;;;;;;3.73;3.30;;;21.80;99.30;;;;;;5098599;28;20810;-38
2021/07/08 10:07:43;;;;;;;2.93;2.53;;;22.10;98.80;;;;;;5114638;28;20495;-39
2021/07/08 10:10:10;;;;;;;3.80;3.00;;;22.50;98.70;;;;;;5096515;28;20414;-37
2021/07/08 10:12:37;;;;;;;4.00;3.00;;;22.90;98.10;;;;;;5114002;28;20175;-39
2021/07/08 10:15:07;;;;;;;3.07;2.87;;;23.30;97.10;;;;;;5112900;28;20398;-38
2021/07/08 10:17:35;;;;;;;3.23;3.03;;;23.60;96.50;;;;;;5112715;28;20736;-38
2021/07/08 10:20:03;;;;;;;3.20;2.90;;;23.70;95.60;;;;;;5113099;28;20417;-38
2021/07/08 10:22:30;;;;;;;3.17;2.80;;;23.70;95.00;;;;;;5095699;28;20548;-38
2021/07/08 10:24:55;;;;;;;3.20;2.63;;;23.60;95.50;;;;;;5079582;28;20469;-39
2021/07/08 10:27:21;;;;;;;4.00;3.47;;;23.70;95.80;;;;;;5114893;28;20473;-39
2021/07/08 10:29:47;;;;;;;2.47;2.27;;;23.80;95.50;;;;;;5095853;28;20178;-37
2021/07/08 10:32:17;;;;;;;6.37;2.60;;;23.90;95.30;;;;;;5095154;28;20188;-37
2021/07/08 10:34:50;;;;;;;6.00;3.00;;;24.00;95.00;;;;;;5078117;28;20437;-37
2021/07/08 10:37:25;;;;;;;3.50;2.80;;;24.10;94.80;;;;;;5096971;28;20479;-37
2021/07/08 10:39:51;;;;;;;2.57;2.37;;;24.50;95.00;;;;;;5115747;28;20404;-39
2021/07/08 10:42:41;;;;;;;2.63;2.40;;;24.80;95.00;;;;;;5097208;28;20681;-37
2021/07/08 10:45:08;;;;;;;3.63;2.60;;;25.10;93.30;;;;;;5100316;28;20429;-39
2021/07/08 10:47:41;;;;;;;3.43;3.23;;;25.10;92.80;;;;;;5115600;28;20778;-37
2021/07/08 10:50:37;;;;;;;3.30;3.00;;;24.90;92.80;;;;;;5115512;28;20704;-37
2021/07/08 10:53:16;;;;;;;4.80;3.13;;;24.40;93.40;;;;;;5115293;28;20679;-38
2021/07/08 10:55:48;;;;;;;3.20;2.83;;;24.10;93.70;;;;;;5114710;28;20468;-39
2021/07/08 10:58:35;;;;;;;3.20;3.00;;;24.00;94.10;;;;;;5115982;28;20718;-38
2021/07/08 11:01:01;;;;;;;3.20;2.83;;;23.80;94.60;;;;;;5115839;28;20522;-38
2021/07/08 11:03:45;;;;;;;2.80;2.60;;;23.70;94.70;;;;;;5114908;28;20821;-37
2021/07/08 11:06:29;;;;;;;3.50;3.20;;;23.70;94.90;;;;;;5114351;28;20585;-38
2021/07/08 11:08:58;;;;;;;3.33;2.93;;;23.60;94.40;;;;;;5114281;28;20517;-37
2021/07/08 11:11:24;;;;;;;3.37;2.90;;;23.20;94.70;;;;;;5118966;28;20425;-38
2021/07/08 11:13:51;;;;;;;3.13;2.60;;;23.10;95.00;;;;;;5101509;28;20427;-37
2021/07/08 11:16:38;;;;;;;3.30;3.00;;;23.10;95.10;;;;;;5117562;28;20345;-37
2021/07/08 11:19:04;;;;;;;3.37;3.10;;;23.10;95.20;;;;;;5099477;28;20436;-38
2021/07/08 11:21:59;;;;;;;2.90;2.70;;;23.20;95.30;;;;;;5116413;28;20512;-38
2021/07/08 11:24:27;;;;;;;2.67;2.47;;;23.20;95.20;;;;;;5116740;28;20417;-38
2021/07/08 11:27:04;;;;;;;2.93;2.73;;;23.30;95.60;;;;;;5114466;28;20451;-38
2021/07/08 11:29:34;;;;;;;2.30;2.10;;;23.40;95.50;;;;;;5114571;28;20658;-38
2021/07/08 11:32:01;;;;;;;3.00;2.80;;;23.50;95.20;;;;;;5115960;28;20425;-39
2021/07/08 11:34:27;;;;;;;3.77;2.50;;;23.60;95.30;;;;;;5095507;28;20478;-38
2021/07/08 11:36:56;;;;;;;3.20;2.73;;;23.70;94.90;;;;;;5113909;28;20436;-39
2021/07/08 11:39:26;;;;;;;2.90;2.70;;;23.90;94.90;;;;;;5096392;28;20509;-39
2021/07/08 11:41:55;;;;;;;2.60;2.40;;;24.00;94.90;;;;;;5115565;28;20749;-39
2021/07/08 11:44:30;;;;;;;2.50;2.30;;;24.10;95.00;;;;;;5115086;28;20418;-41
2021/07/08 11:46:57;;;;;;;2.60;2.40;;;24.20;94.90;;;;;;5115849;28;20442;-39
2021/07/08 11:49:24;;;;;;;2.60;2.13;;;24.20;94.50;;;;;;5116776;28;20522;-39
2021/07/08 11:51:49;;;;;;;2.57;2.37;;;24.10;94.50;;;;;;5116898;28;20445;-40
2021/07/08 11:54:15;;;;;;;2.83;2.07;;;24.10;94.10;;;;;;5095881;28;20456;-39
2021/07/08 11:56:40;;;;;;;2.63;2.43;;;24.00;93.40;;;;;;5113463;28;20656;-40
2021/07/08 11:59:06;;;;;;;2.30;2.10;;;23.80;93.70;;;;;;5096209;28;20167;-39
2021/07/08 12:01:32;;;;;;;2.43;2.23;;;23.60;94.00;;;;;;5113522;28;20184;-39
2021/07/08 12:03:59;;;;;;;2.70;2.43;;;23.50;94.50;;;;;;5113816;28;20820;-38
2021/07/08 12:06:27;;;;;;;2.53;2.33;;;23.50;95.20;;;;;;5113365;28;20183;-39
2021/07/08 12:08:58;;;;;;;3.30;2.37;;;23.60;95.70;;;;;;5097124;28;20453;-39
2021/07/08 12:11:52;;;;;;;4.30;2.87;;;23.90;96.00;;;;;;5116028;28;20727;-40
2021/07/08 12:14:22;;;;;;;2.97;2.50;;;24.30;96.00;;;;;;5115379;28;20433;-39
2021/07/08 12:16:52;;;;;;;3.70;2.43;;;24.60;95.50;;;;;;5113694;28;20842;-39
2021/07/08 12:19:19;;;;;;;2.00;1.90;;;24.90;94.70;;;;;;5114541;28;20460;-39
2021/07/08 12:21:47;;;;;;;2.50;2.30;;;25.10;93.70;;;;;;5116059;28;20441;-38
2021/07/08 12:24:19;;;;;;;4.00;2.57;;;25.20;93.40;;;;;;5114909;28;20409;-38
2021/07/08 12:26:45;;;;;;;2.47;2.10;;;25.20;93.30;;;;;;5115719;28;20644;-40
2021/07/08 12:29:14;;;;;;;2.37;2.17;;;25.30;93.60;;;;;;5116069;28;20495;-36
2021/07/08 12:31:48;;;;;;;2.43;2.10;;;25.40;93.50;;;;;;5116452;28;20187;-38
2021/07/08 12:34:14;;;;;;;3.67;2.50;;;25.60;93.40;;;;;;5098913;28;20514;-38
2021/07/08 12:36:40;;;;;;;4.13;3.23;;;25.60;93.00;;;;;;5116147;28;20498;-38
2021/07/08 12:39:06;;;;;;;22.00;10.50;;;25.70;92.70;;;;;;5115912;28;20417;-36
2021/07/08 12:41:35;;;;;;;53.90;23.03;;;25.90;92.20;;;;;;5116256;28;20203;-37
2021/07/08 12:44:11;;;;;;;7.23;5.73;;;26.20;91.20;;;;;;5116970;28;20168;-37
2021/07/08 12:46:37;;;;;;;6.63;3.67;;;26.40;90.50;;;;;;5115449;28;20482;-40
2021/07/08 12:49:04;;;;;;;5.03;2.80;;;26.40;90.00;;;;;;5115612;28;20476;-36
2021/07/08 12:51:30;;;;;;;3.50;2.50;;;26.40;88.90;;;;;;5114546;28;20536;-37